createdAt,value
2023-02-25T00:02:33.744Z,4.00
2023-02-25T00:07:38.496Z,4.00
2023-02-25T00:12:43.017Z,4.00
2023-02-25T00:17:46.319Z,3.90
2023-02-25T00:22:51.088Z,3.90
2023-02-25T00:27:54.469Z,3.90
2023-02-25T00:32:57.848Z,4.00
2023-02-25T00:38:14.845Z,3.90
2023-02-25T00:43:19.174Z,4.00
2023-02-25T00:48:22.812Z,4.00
2023-02-25T00:53:28.829Z,4.00
2023-02-25T00:58:32.164Z,4.00
2023-02-25T01:03:35.425Z,3.90
2023-02-25T01:08:40.276Z,4.00
2023-02-25T01:13:44.135Z,4.00
2023-02-25T01:18:48.320Z,4.00
2023-02-25T01:23:58.875Z,4.00
2023-02-25T01:29:02.577Z,4.00
2023-02-25T01:34:07.997Z,4.00
2023-02-25T01:39:14.990Z,4.00
2023-02-25T01:44:20.957Z,4.10
2023-02-25T01:49:31.395Z,4.00
2023-02-25T01:54:38.112Z,4.00
2023-02-25T01:59:44.279Z,4.00
2023-02-25T02:04:50.252Z,4.00
2023-02-25T02:09:57.697Z,3.90
2023-02-25T02:15:03.168Z,3.90
2023-02-25T02:20:14.310Z,3.80
2023-02-25T02:25:55.300Z,3.80
2023-02-25T02:31:34.407Z,3.80
2023-02-25T02:36:50.618Z,3.80
2023-02-25T02:42:02.676Z,3.80
2023-02-25T02:47:11.422Z,3.70
2023-02-25T02:52:19.517Z,6.00
2023-02-25T02:57:28.165Z,3.60
2023-02-25T03:02:38.624Z,3.10
2023-02-25T03:07:47.315Z,3.40
2023-02-25T03:12:51.457Z,3.40
2023-02-25T03:18:02.820Z,3.40
2023-02-25T03:23:15.615Z,3.30
2023-02-25T03:28:30.651Z,3.30
2023-02-25T03:33:40.717Z,3.20
2023-02-25T03:38:48.914Z,3.20
2023-02-25T03:43:56.883Z,3.10
2023-02-25T03:49:04.222Z,3.00
2023-02-25T03:54:08.253Z,2.90
2023-02-25T03:59:13.915Z,2.90
2023-02-25T04:04:19.248Z,2.80
2023-02-25T04:09:23.167Z,2.80
2023-02-25T04:14:26.885Z,2.80
2023-02-25T04:19:32.040Z,2.80
2023-02-25T04:24:36.034Z,4.00
2023-02-25T04:29:39.615Z,2.80
2023-02-25T04:34:44.420Z,2.80
2023-02-25T04:39:47.842Z,2.80
2023-02-25T04:44:51.411Z,2.70
2023-02-25T04:49:56.299Z,2.80
2023-02-25T04:55:00.042Z,2.80
2023-02-25T05:00:10.923Z,3.00
2023-02-25T05:05:17.194Z,2.80
2023-02-25T05:10:20.773Z,2.80
2023-02-25T05:15:24.283Z,2.80
2023-02-25T05:20:30.663Z,2.90
2023-02-25T05:25:35.076Z,3.00
2023-02-25T05:30:39.772Z,3.00
2023-02-25T05:35:44.978Z,3.00
2023-02-25T05:40:48.399Z,3.20
2023-02-25T05:45:55.398Z,3.00
2023-02-25T05:51:05.155Z,2.80
2023-02-25T05:56:10.737Z,4.20
2023-02-25T06:01:16.006Z,2.60
2023-02-25T06:06:24.380Z,2.70
2023-02-25T06:11:30.811Z,2.70
2023-02-25T06:16:34.171Z,2.70
2023-02-25T06:21:38.867Z,2.70
2023-02-25T06:26:42.680Z,2.70
2023-02-25T06:31:46.040Z,2.70
2023-02-25T06:36:50.776Z,2.70
2023-02-25T06:41:57.336Z,2.80
2023-02-25T06:47:00.623Z,2.80
2023-02-25T06:52:05.285Z,2.80
2023-02-25T06:57:09.833Z,2.80
2023-02-25T07:02:14.037Z,2.90
2023-02-25T07:07:19.210Z,2.90
2023-02-25T07:12:22.665Z,2.90
2023-02-25T07:17:26.146Z,2.90
2023-02-25T07:22:30.901Z,3.00
2023-02-25T07:27:34.416Z,0.40
2023-02-25T07:32:37.762Z,3.00
2023-02-25T07:37:42.548Z,3.10
2023-02-25T07:42:45.750Z,3.10
2023-02-25T07:47:49.250Z,3.10
2023-02-25T07:52:54.036Z,3.10
2023-02-25T07:57:57.442Z,3.10
2023-02-25T08:03:00.868Z,3.20
2023-02-25T08:08:06.245Z,3.30
2023-02-25T08:13:09.517Z,3.30
2023-02-25T08:18:13.088Z,3.80
2023-02-25T08:23:17.773Z,3.40
2023-02-25T08:28:21.159Z,3.60
2023-02-25T08:33:24.683Z,3.60
2023-02-25T08:38:29.331Z,3.60
2023-02-25T08:43:33.227Z,3.60
2023-02-25T08:48:36.623Z,3.60
2023-02-25T08:53:42.297Z,3.70
2023-02-25T08:58:45.642Z,3.90
2023-02-25T09:03:52.406Z,4.00
2023-02-25T09:08:58.127Z,4.20
2023-02-25T09:14:01.526Z,3.90
2023-02-25T09:19:05.598Z,4.10
2023-02-25T09:24:11.110Z,4.20
2023-02-25T09:29:14.374Z,4.10
2023-02-25T09:34:18.359Z,4.30
2023-02-25T09:39:23.160Z,4.40
2023-02-25T09:44:30.773Z,4.40
2023-02-25T09:49:38.797Z,4.40
2023-02-25T09:54:46.178Z,4.40
2023-02-25T09:59:52.143Z,4.40
2023-02-25T10:05:14.871Z,4.20
2023-02-25T10:10:24.724Z,5.00
2023-02-25T10:15:52.354Z,6.10
2023-02-25T10:21:08.827Z,7.10
2023-02-25T10:26:19.770Z,6.60
2023-02-25T10:31:24.698Z,8.20
2023-02-25T10:36:32.138Z,8.20
2023-02-25T10:41:37.166Z,7.90
2023-02-25T10:46:46.627Z,7.30
2023-02-25T10:52:00.996Z,6.70
2023-02-25T10:57:16.636Z,7.00
2023-02-25T11:02:23.560Z,8.30
2023-02-25T11:07:34.286Z,7.50
2023-02-25T11:12:44.129Z,8.00
2023-02-25T11:17:47.555Z,7.70
2023-02-25T11:22:53.565Z,8.30
2023-02-25T11:27:59.950Z,9.00
2023-02-25T11:33:11.577Z,9.20
2023-02-25T11:38:24.883Z,7.70
2023-02-25T11:43:36.625Z,7.30
2023-02-25T11:48:48.616Z,7.40
2023-02-25T11:54:05.622Z,7.70
2023-02-25T11:59:24.994Z,7.40
2023-02-25T12:05:10.684Z,7.30
2023-02-25T12:10:43.047Z,7.30
2023-02-25T12:16:22.401Z,8.40
2023-02-25T12:22:05.280Z,9.00
2023-02-25T12:27:32.148Z,10.50
2023-02-25T12:32:58.830Z,9.30
2023-02-25T12:38:40.732Z,11.50
2023-02-25T12:43:50.812Z,11.40
2023-02-25T12:49:22.284Z,11.30
2023-02-25T12:54:48.319Z,10.70
2023-02-25T13:00:15.389Z,11.70
2023-02-25T13:05:47.310Z,11.70
2023-02-25T13:11:00.795Z,10.90
2023-02-25T13:16:20.394Z,11.10
2023-02-25T13:21:44.142Z,10.30
2023-02-25T13:27:16.065Z,8.00
2023-02-25T13:32:31.665Z,7.30
2023-02-25T13:37:46.452Z,7.70
2023-02-25T13:43:28.567Z,7.80
2023-02-25T13:48:53.421Z,8.10
2023-02-25T13:54:32.474Z,6.90
2023-02-25T14:00:00.259Z,5.50
2023-02-25T14:05:23.965Z,5.50
2023-02-25T14:10:43.376Z,4.40
2023-02-25T14:16:00.001Z,3.70
2023-02-25T14:21:30.546Z,3.60
2023-02-25T14:26:40.166Z,3.50
2023-02-25T14:32:00.672Z,3.70
2023-02-25T14:37:32.417Z,6.50
2023-02-25T14:42:50.985Z,7.20
2023-02-25T14:48:01.651Z,7.70
2023-02-25T14:53:55.772Z,7.90
2023-02-25T14:59:37.510Z,5.80
2023-02-25T15:05:17.619Z,4.00
2023-02-25T15:10:46.220Z,3.20
2023-02-25T15:16:11.080Z,2.70
2023-02-25T15:21:38.302Z,2.80
2023-02-25T15:26:45.818Z,2.80
2023-02-25T15:32:12.600Z,1.40
2023-02-25T15:37:31.163Z,2.20
2023-02-25T15:42:49.663Z,2.00
2023-02-25T15:48:27.821Z,2.10
2023-02-25T15:53:50.271Z,2.30
2023-02-25T15:58:57.725Z,2.40
2023-02-25T16:04:02.580Z,2.40
2023-02-25T16:09:09.606Z,2.30
2023-02-25T16:14:20.043Z,2.20
2023-02-25T16:19:28.113Z,2.20
2023-02-25T16:24:31.807Z,2.30
2023-02-25T16:29:53.053Z,2.20
2023-02-25T16:35:02.424Z,2.30
2023-02-25T16:40:06.952Z,2.10
2023-02-25T16:45:25.193Z,2.10
2023-02-25T16:50:29.697Z,2.10
2023-02-25T16:55:41.220Z,2.10
2023-02-25T17:00:52.554Z,0.70
2023-02-25T17:06:06.636Z,2.10
2023-02-25T17:11:13.534Z,2.10
2023-02-25T17:16:23.874Z,2.20
2023-02-25T17:21:30.206Z,2.20
2023-02-25T17:26:33.839Z,2.00
2023-02-25T17:31:45.159Z,2.10
2023-02-25T17:36:49.124Z,2.00
2023-02-25T17:41:53.345Z,2.00
2023-02-25T17:46:57.966Z,2.00
2023-02-25T17:52:02.950Z,1.90
2023-02-25T17:57:09.940Z,1.90
2023-02-25T18:02:36.409Z,1.90
2023-02-25T18:07:40.163Z,1.90
2023-02-25T18:12:49.323Z,1.90
2023-02-25T18:17:56.384Z,1.80
2023-02-25T18:23:02.254Z,1.80
2023-02-25T18:28:07.583Z,1.80
2023-02-25T18:33:13.351Z,1.70
2023-02-25T18:38:19.864Z,1.80
2023-02-25T18:43:25.507Z,1.60
2023-02-25T18:48:32.542Z,1.60
2023-02-25T18:53:35.931Z,1.70
2023-02-25T18:58:39.166Z,1.60
2023-02-25T19:03:46.062Z,1.70
2023-02-25T19:08:49.437Z,1.70
2023-02-25T19:13:53.408Z,1.80
2023-02-25T19:18:58.114Z,1.90
2023-02-25T19:24:01.474Z,1.90
2023-02-25T19:29:04.883Z,1.60
2023-02-25T19:34:09.617Z,1.50
2023-02-25T19:39:12.906Z,1.40
2023-02-25T19:44:16.198Z,1.30
2023-02-25T19:49:21.152Z,1.20
2023-02-25T19:54:26.129Z,1.20
2023-02-25T19:59:31.395Z,1.20
2023-02-25T20:04:37.121Z,1.30
2023-02-25T20:09:41.103Z,1.30
2023-02-25T20:14:44.625Z,1.30
2023-02-25T20:19:49.522Z,1.30
2023-02-25T20:24:52.945Z,1.40
2023-02-25T20:29:56.381Z,1.30
2023-02-25T20:35:01.748Z,1.30
2023-02-25T20:40:08.222Z,1.30
2023-02-25T20:45:16.574Z,1.30
2023-02-25T20:50:25.138Z,1.30
2023-02-25T20:55:28.467Z,3.40
2023-02-25T21:00:31.802Z,1.30
2023-02-25T21:05:36.613Z,1.30
2023-02-25T21:10:43.430Z,1.30
2023-02-25T21:15:46.892Z,1.30
2023-02-25T21:20:57.970Z,1.30
2023-02-25T21:26:02.223Z,1.30
2023-02-25T21:31:08.933Z,1.30
2023-02-25T21:36:13.812Z,1.20
2023-02-25T21:41:17.401Z,1.10
2023-02-25T21:46:21.334Z,1.00
2023-02-25T21:51:27.322Z,1.00
2023-02-25T21:56:31.375Z,0.90
2023-02-25T22:01:36.145Z,0.80
2023-02-25T22:06:42.979Z,0.90
2023-02-25T22:11:46.971Z,0.90
2023-02-25T22:16:50.262Z,0.80
2023-02-25T22:21:55.026Z,0.80
2023-02-25T22:26:58.291Z,0.80
2023-02-25T22:32:01.701Z,0.80
2023-02-25T22:37:06.524Z,0.80
2023-02-25T22:42:09.808Z,0.80
2023-02-25T22:47:13.138Z,0.80
2023-02-25T22:52:17.816Z,0.70
2023-02-25T22:57:21.119Z,0.70
2023-02-25T23:02:24.904Z,0.60
2023-02-25T23:07:29.613Z,0.60
2023-02-25T23:12:32.942Z,0.60
2023-02-25T23:17:36.288Z,0.60
2023-02-25T23:22:40.975Z,0.60
2023-02-25T23:27:44.268Z,0.60
2023-02-25T23:32:47.511Z,0.30
2023-02-25T23:37:52.164Z,0.30
2023-02-25T23:42:55.472Z,0.40
2023-02-25T23:47:58.823Z,0.40
2023-02-25T23:53:03.740Z,0.30
2023-02-25T23:58:07.180Z,0.30
